Time;durP1;ratioP1;P1;durP2;ratioP2;P2;SDS_P1;SDS_P2;PMS_P1;PMS_P2;Temp;Humidity;BMP_temperature;BMP_pressure;BME280_temperature;BME280_humidity;BME280_pressure;Samples;Min_cycle;Max_cycle;Signal;HPM_P1;HPM_P2
2023/03/31 00:01:32;;;;;;;4.72;2.88;;;11.60;73.90;;;;;;4995220;28;20029;-71
2023/03/31 00:04:05;;;;;;;3.25;2.63;;;11.70;74.20;;;;;;4995242;28;20022;-71
2023/03/31 00:06:36;;;;;;;6.88;3.05;;;11.70;74.30;;;;;;4977709;28;20096;-71
2023/03/31 00:09:11;;;;;;;5.20;2.67;;;11.70;74.30;;;;;;4994685;28;20089;-72
2023/03/31 00:11:38;;;;;;;3.47;2.38;;;11.70;74.30;;;;;;4995126;28;20472;-71
2023/03/31 00:14:06;;;;;;;5.40;3.20;;;11.70;74.40;;;;;;4995026;28;20088;-71
2023/03/31 00:16:33;;;;;;;4.75;2.97;;;11.60;74.20;;;;;;4994914;28;20368;-71
2023/03/31 00:19:00;;;;;;;5.95;3.20;;;11.60;74.20;;;;;;4994853;28;20037;-71
2023/03/31 00:21:33;;;;;;;4.47;2.58;;;11.70;74.30;;;;;;4994880;28;20062;-71
2023/03/31 00:24:04;;;;;;;3.47;2.58;;;11.70;74.40;;;;;;4994902;28;20029;-71
2023/03/31 00:26:30;;;;;;;6.43;3.25;;;11.80;74.50;;;;;;4977352;28;20027;-71
2023/03/31 00:28:57;;;;;;;6.65;2.70;;;11.80;74.60;;;;;;4994713;28;20026;-72
2023/03/31 00:31:23;;;;;;;7.00;3.55;;;11.80;74.30;;;;;;4994578;28;20032;-71
2023/03/31 00:33:49;;;;;;;5.45;3.03;;;11.80;74.00;;;;;;4994080;28;20050;-71
2023/03/31 00:36:26;;;;;;;7.88;4.22;;;11.80;73.80;;;;;;4994433;28;20502;-70
2023/03/31 00:38:53;;;;;;;7.25;3.60;;;11.80;74.50;;;;;;4994653;28;20057;-71
2023/03/31 00:41:19;;;;;;;7.03;3.25;;;11.80;73.50;;;;;;4977059;28;20097;-71
2023/03/31 00:44:08;;;;;;;6.57;3.17;;;11.70;73.30;;;;;;4994508;28;20041;-70
2023/03/31 00:46:51;;;;;;;5.78;3.00;;;11.70;73.10;;;;;;4994203;28;20030;-71
2023/03/31 00:49:36;;;;;;;5.75;3.38;;;11.70;73.10;;;;;;4976925;28;20050;-70
2023/03/31 00:52:34;;;;;;;10.65;3.60;;;11.60;73.00;;;;;;4994318;28;20036;-71
2023/03/31 00:55:13;;;;;;;8.10;3.78;;;11.60;73.00;;;;;;4976024;28;20038;-71
2023/03/31 00:57:41;;;;;;;6.65;3.30;;;11.50;72.80;;;;;;4994267;28;20018;-71
2023/03/31 01:00:15;;;;;;;5.65;3.35;;;11.50;72.70;;;;;;4994261;28;20471;-71
2023/03/31 01:02:51;;;;;;;6.05;3.85;;;11.40;72.60;;;;;;4994284;28;20032;-71
2023/03/31 01:05:29;;;;;;;9.60;4.10;;;11.40;72.60;;;;;;4994328;28;20022;-71
2023/03/31 01:07:56;;;;;;;7.57;3.92;;;11.30;72.60;;;;;;4976674;28;20030;-71
2023/03/31 01:10:22;;;;;;;7.68;3.97;;;11.30;72.80;;;;;;4994035;28;20490;-71
2023/03/31 01:12:53;;;;;;;6.13;3.20;;;11.30;72.90;;;;;;4994108;28;20030;-72
2023/03/31 01:15:19;;;;;;;12.27;4.25;;;11.20;73.50;;;;;;4994162;28;20018;-71
2023/03/31 01:17:46;;;;;;;5.97;3.72;;;11.20;72.60;;;;;;4976176;28;20038;-72
2023/03/31 01:20:48;;;;;;;6.35;3.75;;;11.10;72.40;;;;;;4976481;28;20030;-72
2023/03/31 01:23:47;;;;;;;6.38;3.80;;;11.00;72.40;;;;;;4993677;28;20018;-73
2023/03/31 01:27:07;;;;;;;8.90;4.05;;;11.00;72.50;;;;;;4993927;28;20383;-72
2023/03/31 01:29:50;;;;;;;6.55;4.10;;;11.00;72.90;;;;;;4896093;29;20442;-71
2023/03/31 01:32:41;;;;;;;5.33;4.00;;;10.90;73.00;;;;;;4985239;28;20046;-71
2023/03/31 01:35:45;;;;;;;8.70;4.53;;;10.90;73.10;;;;;;4976110;28;20057;-71
2023/03/31 01:38:17;;;;;;;8.25;4.05;;;10.90;73.20;;;;;;4993761;28;20049;-72
2023/03/31 01:41:06;;;;;;;6.43;3.53;;;10.90;73.30;;;;;;4993615;28;20022;-72
2023/03/31 01:43:41;;;;;;;9.32;4.20;;;10.80;73.40;;;;;;4993867;28;20071;-71
2023/03/31 01:46:27;;;;;;;9.57;4.68;;;10.80;73.40;;;;;;4983020;28;20105;-72
2023/03/31 01:48:57;;;;;;;5.95;3.70;;;10.80;73.40;;;;;;4974625;28;20471;-72
2023/03/31 01:51:42;;;;;;;5.35;3.70;;;10.80;73.50;;;;;;4957190;28;20031;-71
2023/03/31 01:54:17;;;;;;;6.03;4.28;;;10.80;73.60;;;;;;4957072;28;20042;-71
2023/03/31 01:56:51;;;;;;;7.18;3.92;;;10.80;73.60;;;;;;4974572;28;20062;-72
2023/03/31 01:59:26;;;;;;;;;;;10.80;73.50;;;;;;4975305;28;20023;-72
2023/03/31 02:02:00;;;;;;;5.82;3.90;;;10.80;73.40;;;;;;4974347;28;20355;-72
2023/03/31 02:04:28;;;;;;;6.85;4.25;;;10.80;73.20;;;;;;4974326;28;20057;-71
2023/03/31 02:07:03;;;;;;;11.98;4.40;;;10.80;73.20;;;;;;4990627;28;20030;-72
2023/03/31 02:09:35;;;;;;;12.05;4.60;;;10.70;73.30;;;;;;4993670;28;20026;-71
2023/03/31 02:12:06;;;;;;;7.32;4.72;;;10.70;73.20;;;;;;4993795;28;20065;-71
2023/03/31 02:14:33;;;;;;;8.40;4.65;;;10.70;73.20;;;;;;4993631;28;20050;-72
2023/03/31 02:17:02;;;;;;;6.95;4.75;;;10.70;73.30;;;;;;4993332;28;20026;-72
2023/03/31 02:19:38;;;;;;;7.00;4.70;;;10.70;73.30;;;;;;4993540;28;20034;-71
2023/03/31 02:22:07;;;;;;;9.13;4.20;;;10.70;73.40;;;;;;4993805;28;20058;-71
2023/03/31 02:24:36;;;;;;;6.18;4.28;;;10.70;73.40;;;;;;4993520;28;20099;-71
2023/03/31 02:27:19;;;;;;;8.25;4.47;;;10.60;73.50;;;;;;4993503;28;20112;-72
2023/03/31 02:29:46;;;;;;;6.65;4.28;;;10.60;73.60;;;;;;4976155;28;20121;-72
2023/03/31 02:32:31;;;;;;;11.57;4.68;;;10.70;73.70;;;;;;4993700;28;20026;-72
2023/03/31 02:34:59;;;;;;;7.43;5.03;;;10.70;73.70;;;;;;4996878;28;20046;-72
2023/03/31 02:37:26;;;;;;;8.27;5.20;;;10.70;73.80;;;;;;4996970;28;20392;-71
2023/03/31 02:39:55;;;;;;;6.38;4.18;;;10.80;73.90;;;;;;4996841;28;20030;-71
2023/03/31 02:42:21;;;;;;;8.30;4.57;;;10.80;73.80;;;;;;4996946;28;20026;-72
2023/03/31 02:44:48;;;;;;;7.32;4.43;;;10.80;73.60;;;;;;4996801;28;20018;-71
2023/03/31 02:47:16;;;;;;;9.43;5.13;;;10.80;73.40;;;;;;4988400;28;20088;-72
2023/03/31 02:49:48;;;;;;;6.53;4.70;;;10.80;73.20;;;;;;4996558;28;20034;-72
2023/03/31 02:52:49;;;;;;;8.90;4.63;;;10.80;73.10;;;;;;4996789;28;20061;-72
2023/03/31 02:55:36;;;;;;;6.32;4.45;;;10.70;73.00;;;;;;4996670;28;20037;-71
2023/03/31 02:58:39;;;;;;;6.65;4.07;;;10.70;72.90;;;;;;4996584;28;20034;-72
2023/03/31 03:01:30;;;;;;;6.78;4.40;;;10.70;72.80;;;;;;4991082;28;20031;-71
2023/03/31 03:04:33;;;;;;;6.20;4.35;;;10.70;72.80;;;;;;4996438;28;20026;-71
2023/03/31 03:07:30;;;;;;;4.63;3.90;;;10.60;72.70;;;;;;4915923;28;20093;-72
2023/03/31 03:10:30;;;;;;;5.63;4.15;;;10.60;72.70;;;;;;4996345;28;20033;-71
2023/03/31 03:13:15;;;;;;;7.28;3.80;;;10.60;72.80;;;;;;4950994;28;20046;-71
2023/03/31 03:15:40;;;;;;;;;;;10.60;72.80;;;;;;4996723;28;20026;-72
2023/03/31 03:18:06;;;;;;;6.45;3.72;;;10.60;72.80;;;;;;4995658;28;19936;-72
2023/03/31 03:20:33;;;;;;;5.20;4.10;;;10.60;72.80;;;;;;4996221;28;20080;-72
2023/03/31 03:22:59;;;;;;;5.50;3.80;;;10.60;72.90;;;;;;4996074;28;20019;-71
2023/03/31 03:25:25;;;;;;;6.70;4.80;;;10.60;73.10;;;;;;4996104;28;20042;-71
2023/03/31 03:27:53;;;;;;;6.90;4.47;;;10.60;73.40;;;;;;4996059;28;20062;-72
2023/03/31 03:30:19;;;;;;;6.80;4.55;;;10.60;73.50;;;;;;4995933;28;20084;-71
2023/03/31 03:32:45;;;;;;;12.35;5.30;;;10.70;73.70;;;;;;4995951;28;20483;-71
2023/03/31 03:35:11;;;;;;;8.32;4.55;;;10.70;73.60;;;;;;4995736;28;20046;-72
2023/03/31 03:37:37;;;;;;;6.32;4.65;;;10.70;73.60;;;;;;4995746;28;20022;-72
2023/03/31 03:40:07;;;;;;;12.50;8.75;;;10.70;73.60;;;;;;4995751;28;20030;-72
2023/03/31 03:42:33;;;;;;;19.30;15.35;;;10.80;73.50;;;;;;4995787;28;20026;-71
2023/03/31 03:45:00;;;;;;;16.70;13.40;;;10.70;73.40;;;;;;4994439;28;20392;-72
2023/03/31 03:47:26;;;;;;;13.02;10.00;;;10.70;73.40;;;;;;4994912;28;20045;-72
2023/03/31 03:49:52;;;;;;;12.27;8.38;;;10.80;73.50;;;;;;4978101;28;20088;-72
2023/03/31 03:52:17;;;;;;;10.02;7.53;;;10.80;73.40;;;;;;4995525;28;20022;-72
2023/03/31 03:54:43;;;;;;;7.28;5.63;;;10.80;73.30;;;;;;4978013;28;20061;-71
2023/03/31 03:57:09;;;;;;;7.07;5.80;;;10.80;73.20;;;;;;4995573;28;20037;-72
2023/03/31 03:59:35;;;;;;;6.18;4.85;;;10.80;73.10;;;;;;4995547;28;20027;-72
2023/03/31 04:02:01;;;;;;;11.07;5.05;;;10.80;73.10;;;;;;4995472;28;20510;-72
2023/03/31 04:04:26;;;;;;;12.13;5.65;;;10.80;73.10;;;;;;4995167;28;20033;-72
2023/03/31 04:06:52;;;;;;;9.07;6.35;;;10.80;73.10;;;;;;4995171;28;20019;-71
2023/03/31 04:09:18;;;;;;;7.82;5.63;;;10.80;73.00;;;;;;4995126;28;20022;-72
2023/03/31 04:11:44;;;;;;;9.52;5.90;;;10.80;72.90;;;;;;4995205;28;20058;-72
2023/03/31 04:14:10;;;;;;;7.28;5.10;;;10.80;72.90;;;;;;4995195;28;20097;-71
2023/03/31 04:16:37;;;;;;;7.03;4.93;;;10.80;72.80;;;;;;4994807;28;20034;-71
2023/03/31 04:19:03;;;;;;;8.10;5.95;;;10.80;73.50;;;;;;4994890;28;20022;-72
2023/03/31 04:21:33;;;;;;;7.85;5.00;;;10.70;72.70;;;;;;4995114;28;20046;-71
2023/03/31 04:24:03;;;;;;;7.13;4.97;;;10.80;72.60;;;;;;4994947;28;20026;-72
2023/03/31 04:26:41;;;;;;;9.38;5.03;;;10.70;72.60;;;;;;4977409;28;20022;-71
2023/03/31 04:29:13;;;;;;;6.38;4.70;;;10.70;72.70;;;;;;4994716;28;20500;-71
2023/03/31 04:31:41;;;;;;;7.82;4.60;;;10.70;72.60;;;;;;4994759;28;20472;-71
2023/03/31 04:34:11;;;;;;;8.32;4.50;;;10.70;72.70;;;;;;4977000;28;20053;-71
2023/03/31 04:36:46;;;;;;;13.75;5.70;;;10.70;72.80;;;;;;4977216;28;20113;-72
2023/03/31 04:39:17;;;;;;;7.78;4.90;;;10.70;72.80;;;;;;4994769;28;20113;-71
2023/03/31 04:41:43;;;;;;;5.63;4.00;;;10.70;73.00;;;;;;4994513;28;20023;-71
2023/03/31 04:44:09;;;;;;;7.10;4.65;;;10.70;73.00;;;;;;4994749;28;20102;-71
2023/03/31 04:46:35;;;;;;;5.68;4.25;;;10.70;73.00;;;;;;4994509;28;20097;-71
2023/03/31 04:49:01;;;;;;;6.32;4.25;;;10.70;73.10;;;;;;4977039;28;20038;-72
2023/03/31 04:51:28;;;;;;;6.75;4.03;;;10.80;73.10;;;;;;4977100;28;20034;-72
2023/03/31 04:53:54;;;;;;;6.95;4.70;;;10.80;73.10;;;;;;4994460;28;20050;-72
2023/03/31 04:56:19;;;;;;;12.20;5.38;;;10.80;73.10;;;;;;4994089;28;20023;-71
2023/03/31 04:58:45;;;;;;;8.57;4.60;;;10.80;73.10;;;;;;4994109;28;20084;-71
2023/03/31 05:01:16;;;;;;;6.72;4.40;;;10.80;73.10;;;;;;4994131;28;20024;-71
2023/03/31 05:03:43;;;;;;;6.63;4.85;;;10.80;73.10;;;;;;4994258;28;20069;-72
2023/03/31 05:06:09;;;;;;;10.82;5.63;;;10.90;73.20;;;;;;4994213;28;20022;-72
2023/03/31 05:08:36;;;;;;;6.25;4.75;;;10.90;73.00;;;;;;4994020;28;20530;-72
2023/03/31 05:11:03;;;;;;;6.90;4.13;;;10.90;73.10;;;;;;4976695;28;20034;-72
2023/03/31 05:13:29;;;;;;;7.63;3.67;;;10.90;73.10;;;;;;4994183;28;20033;-73
2023/03/31 05:15:55;;;;;;;6.80;4.55;;;11.00;73.20;;;;;;4976140;28;20060;-72
2023/03/31 05:18:20;;;;;;;6.32;4.45;;;11.00;73.30;;;;;;4993618;28;20036;-72
2023/03/31 05:20:46;;;;;;;5.50;4.00;;;11.00;73.20;;;;;;4976606;28;20018;-72
2023/03/31 05:23:12;;;;;;;8.57;4.30;;;11.10;73.30;;;;;;4994047;28;20018;-72
2023/03/31 05:25:38;;;;;;;6.68;3.97;;;11.10;73.30;;;;;;4993979;28;20034;-72
2023/03/31 05:28:04;;;;;;;9.57;4.53;;;11.10;73.30;;;;;;4993918;28;20101;-72
2023/03/31 05:30:30;;;;;;;5.63;3.90;;;11.20;73.40;;;;;;4993643;28;20472;-71
2023/03/31 05:32:56;;;;;;;9.32;4.72;;;11.20;73.30;;;;;;4993707;28;20027;-71
2023/03/31 05:35:22;;;;;;;8.32;4.90;;;11.30;73.40;;;;;;4993716;28;20051;-72
2023/03/31 05:37:48;;;;;;;9.43;5.45;;;11.30;73.30;;;;;;4993725;28;20125;-72
2023/03/31 05:40:14;;;;;;;10.80;5.00;;;11.30;73.90;;;;;;4993944;28;20022;-72
2023/03/31 05:42:40;;;;;;;6.03;4.75;;;11.40;73.10;;;;;;4993799;28;20073;-72
2023/03/31 05:45:07;;;;;;;7.85;4.70;;;11.40;73.10;;;;;;4993872;28;20045;-71
2023/03/31 05:47:33;;;;;;;11.10;5.32;;;11.50;73.10;;;;;;4976161;28;20492;-72
2023/03/31 05:49:59;;;;;;;18.30;10.27;;;11.50;73.00;;;;;;4974139;28;20065;-71
2023/03/31 05:52:25;;;;;;;13.80;7.53;;;11.50;72.80;;;;;;4974426;28;20473;-72
2023/03/31 05:54:51;;;;;;;9.57;5.72;;;11.60;73.00;;;;;;4974477;28;20089;-71
2023/03/31 05:57:17;;;;;;;8.57;5.53;;;11.70;73.20;;;;;;4974259;28;20113;-72
2023/03/31 05:59:42;;;;;;;11.80;5.50;;;11.70;73.20;;;;;;4978002;28;20027;-72
2023/03/31 06:02:12;;;;;;;8.65;4.65;;;11.80;73.00;;;;;;4993609;28;20015;-72
2023/03/31 06:04:38;;;;;;;8.25;4.75;;;11.80;73.10;;;;;;4993557;28;20018;-72
2023/03/31 06:07:04;;;;;;;8.35;5.43;;;11.90;73.20;;;;;;4993457;28;20476;-72
2023/03/31 06:09:30;;;;;;;9.40;5.97;;;12.00;72.90;;;;;;4997279;28;20089;-71
2023/03/31 06:11:56;;;;;;;11.98;6.68;;;12.10;72.50;;;;;;4997288;28;20038;-71
2023/03/31 06:14:22;;;;;;;15.43;7.45;;;12.10;72.30;;;;;;4979718;28;20046;-72
2023/03/31 06:16:48;;;;;;;11.65;5.97;;;12.20;71.90;;;;;;4996933;28;20035;-72
2023/03/31 06:19:14;;;;;;;10.55;5.40;;;12.20;71.80;;;;;;4996986;28;20107;-72
2023/03/31 06:21:40;;;;;;;9.10;4.72;;;12.30;72.00;;;;;;4997270;28;20037;-71
2023/03/31 06:24:08;;;;;;;6.70;4.35;;;12.40;72.20;;;;;;4997091;28;20023;-71
2023/03/31 06:26:34;;;;;;;6.15;4.07;;;12.40;72.20;;;;;;4996979;28;20494;-72
2023/03/31 06:29:00;;;;;;;7.03;4.03;;;12.50;72.30;;;;;;4996826;28;20078;-72
2023/03/31 06:31:26;;;;;;;8.88;5.07;;;12.60;72.30;;;;;;4997133;28;20424;-72
2023/03/31 06:33:52;;;;;;;13.73;6.18;;;12.70;71.90;;;;;;4996711;28;20519;-72
2023/03/31 06:36:21;;;;;;;11.45;7.20;;;12.70;71.40;;;;;;4996966;28;20506;-72
2023/03/31 06:38:47;;;;;;;13.20;8.13;;;12.80;70.80;;;;;;4996738;28;20034;-72
2023/03/31 06:41:14;;;;;;;12.35;7.38;;;12.90;70.60;;;;;;4996812;28;20383;-71
2023/03/31 06:43:40;;;;;;;27.35;11.48;;;12.90;71.00;;;;;;4979320;28;20026;-72
2023/03/31 06:46:06;;;;;;;19.38;10.82;;;13.00;70.50;;;;;;4996383;28;20105;-72
2023/03/31 06:48:33;;;;;;;29.88;12.50;;;13.10;70.10;;;;;;4989022;28;20082;-72
2023/03/31 06:51:00;;;;;;;25.42;11.30;;;13.10;69.80;;;;;;4977020;28;20105;-72
2023/03/31 06:53:26;;;;;;;15.73;7.13;;;13.20;70.10;;;;;;4976967;28;20034;-73
2023/03/31 06:55:52;;;;;;;9.52;5.28;;;13.30;70.30;;;;;;4959213;28;20034;-72
2023/03/31 06:58:18;;;;;;;9.02;6.00;;;13.30;70.20;;;;;;4962997;28;20041;-72
2023/03/31 07:00:45;;;;;;;14.38;6.80;;;13.40;70.20;;;;;;4996168;28;20031;-72
2023/03/31 07:03:12;;;;;;;7.63;5.53;;;13.50;70.10;;;;;;4995649;28;20023;-72
2023/03/31 07:05:38;;;;;;;11.80;7.25;;;13.60;70.00;;;;;;4996267;28;20379;-72
2023/03/31 07:08:04;;;;;;;16.10;8.38;;;13.60;69.80;;;;;;4978806;28;20388;-72
2023/03/31 07:10:31;;;;;;;20.08;9.50;;;13.60;69.30;;;;;;4996106;28;20026;-72
2023/03/31 07:12:57;;;;;;;16.55;9.82;;;13.70;69.30;;;;;;4996413;28;20030;-72
2023/03/31 07:15:23;;;;;;;22.38;10.98;;;13.80;69.50;;;;;;4996115;28;20062;-72
2023/03/31 07:17:52;;;;;;;20.95;12.35;;;13.80;69.40;;;;;;4995582;28;20041;-72
2023/03/31 07:20:19;;;;;;;32.90;15.90;;;13.80;69.20;;;;;;4977278;28;20053;-72
2023/03/31 07:22:47;;;;;;;47.95;17.77;;;13.90;69.00;;;;;;4995821;28;20026;-72
2023/03/31 07:25:15;;;;;;;36.60;17.27;;;13.90;68.40;;;;;;4995947;28;20023;-72
2023/03/31 07:27:41;;;;;;;34.88;17.17;;;13.90;68.30;;;;;;4995923;28;20052;-71
2023/03/31 07:30:13;;;;;;;37.70;20.45;;;13.90;68.50;;;;;;4978268;28;20033;-72
2023/03/31 07:32:40;;;;;;;44.10;21.30;;;13.90;68.40;;;;;;4995832;28;20097;-72
2023/03/31 07:35:07;;;;;;;52.38;21.95;;;13.90;68.30;;;;;;4995688;28;20555;-72
2023/03/31 07:37:40;;;;;;;36.92;18.40;;;13.90;67.90;;;;;;4995680;28;20034;-72
2023/03/31 07:40:08;;;;;;;38.58;17.42;;;13.90;68.20;;;;;;4995867;28;20480;-71
2023/03/31 07:42:34;;;;;;;41.53;18.70;;;14.00;68.50;;;;;;4978064;28;20076;-72
2023/03/31 07:45:01;;;;;;;35.13;17.90;;;14.00;68.60;;;;;;4995804;28;20472;-71
2023/03/31 07:47:27;;;;;;;32.42;16.98;;;14.00;68.50;;;;;;4995404;28;20030;-71
2023/03/31 07:49:53;;;;;;;31.77;16.88;;;14.00;68.50;;;;;;4995647;28;20109;-72
2023/03/31 07:52:19;;;;;;;29.80;16.60;;;14.10;68.60;;;;;;4995478;28;20105;-72
2023/03/31 07:54:45;;;;;;;29.17;14.80;;;14.10;68.50;;;;;;4977959;28;20656;-72
2023/03/31 07:57:12;;;;;;;23.55;13.48;;;14.10;68.50;;;;;;4995633;28;20427;-72
2023/03/31 07:59:38;;;;;;;23.17;11.60;;;14.10;68.40;;;;;;4995285;28;20034;-71
2023/03/31 08:02:04;;;;;;;24.40;13.38;;;14.10;68.30;;;;;;4995291;28;20018;-73
2023/03/31 08:04:30;;;;;;;24.40;12.32;;;14.20;68.20;;;;;;4977880;28;20388;-70
2023/03/31 08:06:56;;;;;;;26.88;12.25;;;14.20;68.30;;;;;;4995174;28;20018;-72
2023/03/31 08:09:22;;;;;;;24.77;11.45;;;14.20;68.40;;;;;;4995258;28;20033;-69
2023/03/31 08:11:49;;;;;;;19.00;10.50;;;14.20;68.20;;;;;;4995287;28;20030;-71
2023/03/31 08:14:15;;;;;;;22.35;11.63;;;14.30;68.00;;;;;;4995145;28;20527;-71
2023/03/31 08:16:41;;;;;;;18.70;11.30;;;14.40;68.00;;;;;;4994841;28;20106;-71
2023/03/31 08:19:06;;;;;;;17.48;10.10;;;14.50;68.20;;;;;;4977104;28;20125;-71
2023/03/31 08:21:32;;;;;;;17.60;9.30;;;14.60;68.70;;;;;;4994993;28;20014;-72
2023/03/31 08:23:58;;;;;;;16.40;8.38;;;14.70;68.70;;;;;;4995169;28;20472;-71
2023/03/31 08:26:24;;;;;;;12.50;6.82;;;14.80;68.50;;;;;;4994980;28;20026;-71
2023/03/31 08:28:51;;;;;;;13.57;7.25;;;15.00;68.40;;;;;;4994994;28;20109;-71
2023/03/31 08:31:19;;;;;;;11.27;7.53;;;15.10;68.20;;;;;;4994448;28;20026;-72
2023/03/31 08:33:45;;;;;;;14.73;8.15;;;15.20;67.70;;;;;;4994521;28;20088;-71
2023/03/31 08:36:12;;;;;;;16.70;8.90;;;15.30;67.30;;;;;;4994627;28;20034;-72
2023/03/31 08:38:40;;;;;;;10.60;7.70;;;15.50;67.30;;;;;;4994558;28;20507;-71
2023/03/31 08:41:16;;;;;;;15.02;7.65;;;15.60;67.00;;;;;;4994692;28;20022;-72
2023/03/31 08:43:45;;;;;;;12.25;6.68;;;15.70;66.50;;;;;;4994774;28;20022;-72
2023/03/31 08:46:13;;;;;;;9.98;5.72;;;15.90;66.80;;;;;;4976831;28;20142;-71
2023/03/31 08:48:47;;;;;;;12.68;5.65;;;16.10;66.70;;;;;;4976410;28;20034;-71
2023/03/31 08:51:16;;;;;;;;;;;16.20;65.90;;;;;;4994972;28;20026;-72
2023/03/31 08:53:48;;;;;;;11.27;5.03;;;16.30;66.30;;;;;;4994519;28;19996;-72
2023/03/31 08:56:21;;;;;;;9.27;5.05;;;16.40;64.40;;;;;;4994364;28;20023;-72
2023/03/31 08:58:49;;;;;;;10.90;5.18;;;16.40;63.50;;;;;;4976768;28;20381;-72
2023/03/31 09:01:35;;;;;;;10.75;4.80;;;16.40;63.20;;;;;;4994328;28;20027;-72
2023/03/31 09:04:26;;;;;;;11.95;5.75;;;16.40;63.00;;;;;;4994353;28;20134;-72
2023/03/31 09:07:06;;;;;;;8.90;5.53;;;16.30;63.50;;;;;;4994417;28;20030;-72
2023/03/31 09:09:57;;;;;;;11.25;6.53;;;16.20;62.90;;;;;;4993279;28;20042;-73
2023/03/31 09:12:38;;;;;;;8.82;5.75;;;16.20;62.90;;;;;;4993209;28;20084;-71
2023/03/31 09:15:21;;;;;;;8.23;5.63;;;16.20;63.00;;;;;;4993571;28;20026;-72
2023/03/31 09:17:50;;;;;;;11.63;6.80;;;16.20;63.10;;;;;;4980402;28;20392;-72
2023/03/31 09:20:27;;;;;;;9.43;6.20;;;16.10;63.20;;;;;;4988433;28;20034;-73
2023/03/31 09:23:00;;;;;;;13.45;8.20;;;16.20;63.10;;;;;;4990801;28;20025;-72
2023/03/31 09:25:32;;;;;;;14.02;7.53;;;16.20;62.90;;;;;;4981437;28;20045;-71
2023/03/31 09:28:01;;;;;;;14.73;6.57;;;16.20;62.50;;;;;;4968045;28;20038;-72
2023/03/31 09:30:32;;;;;;;15.43;6.80;;;16.20;62.40;;;;;;4976652;28;20483;-72
2023/03/31 09:33:30;;;;;;;16.55;7.03;;;16.20;62.70;;;;;;4994054;28;20033;-72
2023/03/31 09:36:00;;;;;;;11.95;6.55;;;16.30;61.80;;;;;;4993764;28;20533;-72
2023/03/31 09:38:30;;;;;;;21.63;9.65;;;16.30;62.10;;;;;;4976183;28;20061;-72
2023/03/31 09:41:01;;;;;;;14.48;9.35;;;16.20;61.00;;;;;;4993853;28;20019;-72
2023/03/31 09:43:37;;;;;;;18.23;10.43;;;16.20;60.60;;;;;;4996166;28;20023;-72
2023/03/31 09:46:12;;;;;;;15.98;10.07;;;16.20;61.30;;;;;;4996838;28;20026;-73
2023/03/31 09:48:43;;;;;;;21.02;10.02;;;16.20;61.90;;;;;;4997186;28;20065;-71
2023/03/31 09:51:17;;;;;;;19.30;10.43;;;16.20;61.80;;;;;;4997774;28;20022;-72
2023/03/31 09:53:59;;;;;;;19.33;10.05;;;16.20;61.40;;;;;;4998126;28;20045;-72
2023/03/31 09:56:51;;;;;;;16.00;10.20;;;16.20;61.80;;;;;;4997729;28;20022;-73
2023/03/31 09:59:22;;;;;;;19.85;11.65;;;16.30;62.40;;;;;;4976629;28;20396;-73
2023/03/31 10:01:55;;;;;;;20.38;10.88;;;16.40;61.50;;;;;;4978093;28;20047;-72
2023/03/31 10:04:32;;;;;;;20.98;11.82;;;16.40;60.90;;;;;;4960659;28;20037;-72
2023/03/31 10:07:00;;;;;;;20.83;10.75;;;16.40;60.60;;;;;;4978021;28;20031;-72
2023/03/31 10:09:29;;;;;;;21.00;11.95;;;16.40;60.50;;;;;;4993963;28;20060;-72
2023/03/31 10:12:01;;;;;;;21.38;11.70;;;16.40;60.40;;;;;;4997080;28;20030;-72
2023/03/31 10:14:46;;;;;;;20.50;12.25;;;16.40;60.60;;;;;;4997353;28;20023;-72
2023/03/31 10:17:23;;;;;;;23.52;12.13;;;16.50;60.40;;;;;;4996821;28;20503;-71
2023/03/31 10:19:52;;;;;;;18.88;9.20;;;16.60;61.00;;;;;;4997115;28;20027;-72
2023/03/31 10:22:22;;;;;;;14.95;8.77;;;16.70;62.00;;;;;;5004466;28;20375;-73
2023/03/31 10:24:50;;;;;;;15.35;9.00;;;16.90;62.40;;;;;;5000254;28;20496;-73
2023/03/31 10:27:30;;;;;;;17.17;9.20;;;17.10;62.40;;;;;;4996844;28;20023;-73
2023/03/31 10:30:07;;;;;;;17.17;8.88;;;17.20;61.50;;;;;;4979556;28;20026;-73
2023/03/31 10:32:41;;;;;;;16.83;9.25;;;17.40;60.90;;;;;;4978968;28;20109;-72
2023/03/31 10:35:31;;;;;;;15.30;9.60;;;17.60;60.30;;;;;;4979321;28;20446;-72
2023/03/31 10:38:02;;;;;;;16.27;9.00;;;17.70;60.50;;;;;;4996661;28;20030;-73
2023/03/31 10:40:33;;;;;;;25.05;11.07;;;17.90;60.30;;;;;;4991811;28;20045;-73
2023/03/31 10:43:10;;;;;;;16.90;9.65;;;18.00;58.30;;;;;;4996635;28;20085;-73
2023/03/31 10:46:04;;;;;;;19.08;11.25;;;18.00;57.90;;;;;;4978796;28;20118;-72
2023/03/31 10:48:32;;;;;;;17.35;10.25;;;18.00;57.10;;;;;;4983264;28;20045;-72
2023/03/31 10:51:25;;;;;;;21.83;11.70;;;18.00;57.80;;;;;;4993542;28;20030;-72
2023/03/31 10:53:55;;;;;;;22.08;10.80;;;18.00;57.90;;;;;;4988323;28;20053;-71
2023/03/31 10:56:39;;;;;;;15.98;9.30;;;18.00;57.80;;;;;;4993763;28;20061;-73
2023/03/31 10:59:39;;;;;;;12.88;7.32;;;17.90;57.70;;;;;;4993297;28;20054;-72
2023/03/31 11:02:23;;;;;;;20.60;7.72;;;17.90;58.40;;;;;;4991215;28;20039;-73
2023/03/31 11:04:59;;;;;;;;;;;18.00;59.00;;;;;;4993911;28;20027;-72
2023/03/31 11:08:03;;;;;;;14.82;7.63;;;18.10;60.60;;;;;;4969072;28;19972;-73
2023/03/31 11:10:53;;;;;;;12.88;7.70;;;18.20;59.40;;;;;;4988225;28;20543;-72
2023/03/31 11:13:34;;;;;;;9.65;5.43;;;18.40;59.10;;;;;;4996684;28;20384;-72
2023/03/31 11:16:09;;;;;;;10.32;4.72;;;18.50;58.60;;;;;;4995873;28;20041;-73
2023/03/31 11:18:49;;;;;;;9.20;4.53;;;18.60;57.80;;;;;;4992927;28;20033;-72
2023/03/31 11:21:26;;;;;;;11.32;5.22;;;18.70;57.70;;;;;;5002865;28;20129;-72
2023/03/31 11:24:18;;;;;;;7.38;4.15;;;18.80;56.80;;;;;;4991875;28;20030;-72
2023/03/31 11:27:09;;;;;;;8.35;4.32;;;18.80;56.30;;;;;;4989531;28;20030;-72
2023/03/31 11:29:53;;;;;;;7.53;4.10;;;18.80;55.80;;;;;;4981581;28;20027;-73
2023/03/31 11:32:56;;;;;;;8.13;4.38;;;18.70;55.40;;;;;;4993041;28;20443;-72
2023/03/31 11:35:53;;;;;;;11.18;5.45;;;18.60;55.60;;;;;;4934371;28;20120;-72
2023/03/31 11:38:44;;;;;;;9.70;4.43;;;18.40;55.50;;;;;;4960945;28;20043;-72
2023/03/31 11:41:18;;;;;;;11.30;4.90;;;18.30;55.10;;;;;;4985229;28;20019;-72
2023/03/31 11:43:54;;;;;;;8.90;3.95;;;18.20;56.40;;;;;;4988126;28;20401;-72
2023/03/31 11:46:43;;;;;;;8.20;4.82;;;18.10;56.20;;;;;;4976483;28;20492;-73
2023/03/31 11:49:27;;;;;;;7.85;4.93;;;18.10;56.40;;;;;;4993833;28;20030;-72
2023/03/31 11:52:11;;;;;;;9.52;5.22;;;18.00;56.50;;;;;;4993505;28;20110;-72
2023/03/31 11:54:45;;;;;;;9.05;4.85;;;18.00;56.50;;;;;;4991922;28;20050;-72
2023/03/31 11:57:20;;;;;;;9.85;4.70;;;18.10;57.30;;;;;;4992285;28;20416;-73
2023/03/31 11:59:54;;;;;;;13.05;5.40;;;18.10;57.50;;;;;;4993323;28;20567;-74
2023/03/31 12:02:45;;;;;;;11.38;4.97;;;18.20;57.60;;;;;;4993602;28;20030;-73
2023/03/31 12:05:16;;;;;;;9.23;5.30;;;18.30;57.70;;;;;;4991078;28;20101;-73
2023/03/31 12:08:09;;;;;;;9.55;5.47;;;18.40;57.80;;;;;;4975475;28;20026;-72
2023/03/31 12:10:37;;;;;;;10.85;5.70;;;18.40;57.60;;;;;;4968082;28;20113;-72
2023/03/31 12:13:03;;;;;;;11.90;5.53;;;18.60;57.20;;;;;;4982897;28;20070;-72
2023/03/31 12:15:31;;;;;;;14.38;6.15;;;18.60;57.30;;;;;;4985708;28;20027;-72
2023/03/31 12:18:25;;;;;;;10.95;6.07;;;18.70;56.40;;;;;;5003186;28;20022;-72
2023/03/31 12:21:00;;;;;;;12.88;5.63;;;18.80;57.00;;;;;;4983067;28;20452;-72
2023/03/31 12:23:30;;;;;;;8.50;5.45;;;19.00;57.10;;;;;;4973781;28;20395;-73
2023/03/31 12:26:07;;;;;;;11.38;4.82;;;19.20;56.90;;;;;;4991686;28;20034;-73
2023/03/31 12:28:37;;;;;;;9.68;4.60;;;19.30;56.70;;;;;;4981509;28;20030;-71
2023/03/31 12:31:07;;;;;;;9.43;4.55;;;19.50;56.20;;;;;;4993223;28;20073;-72
2023/03/31 12:33:44;;;;;;;7.68;4.22;;;19.50;55.80;;;;;;4992206;28;20022;-72
2023/03/31 12:36:32;;;;;;;9.45;4.90;;;19.70;55.70;;;;;;4985540;28;20027;-72
2023/03/31 12:39:11;;;;;;;9.55;4.95;;;19.70;54.10;;;;;;4992181;28;20058;-72
2023/03/31 12:41:45;;;;;;;13.90;4.72;;;19.90;55.20;;;;;;4993097;28;20022;-72
2023/03/31 12:44:47;;;;;;;12.15;5.38;;;19.90;53.10;;;;;;4991524;28;20026;-72
2023/03/31 12:47:42;;;;;;;8.68;4.40;;;20.00;53.40;;;;;;4952174;28;20030;-72
2023/03/31 12:50:36;;;;;;;8.52;4.07;;;20.10;52.90;;;;;;4988608;28;20561;-73
2023/03/31 12:53:11;;;;;;;10.18;4.22;;;20.00;51.30;;;;;;4970811;28;20038;-73
2023/03/31 12:55:58;;;;;;;8.73;4.38;;;20.00;51.20;;;;;;4966938;28;20502;-72
2023/03/31 12:58:33;;;;;;;10.60;4.07;;;19.90;52.10;;;;;;4991593;28;20135;-73
2023/03/31 13:01:13;;;;;;;8.02;3.97;;;19.90;51.90;;;;;;4991872;28;20028;-73
2023/03/31 13:03:47;;;;;;;10.15;4.15;;;19.90;52.30;;;;;;4990902;28;20018;-73
2023/03/31 13:06:29;;;;;;;8.30;4.60;;;19.90;51.60;;;;;;4968806;28;20085;-72
2023/03/31 13:09:03;;;;;;;5.93;4.25;;;19.70;51.00;;;;;;4974439;28;20472;-74
2023/03/31 13:11:38;;;;;;;7.38;4.00;;;19.60;50.60;;;;;;4972635;28;20116;-73